sensor_id;sensor_type;location;lat;lon;timestamp;P1;durP1;ratioP1;P2;durP2;ratioP2
4638;SDS011;2332;38.646;-9.154;2023-10-19T00:02:06;37.23;;;5.67;;
4638;SDS011;2332;38.646;-9.154;2023-10-19T00:04:32;30.70;;;5.80;;
4638;SDS011;2332;38.646;-9.154;2023-10-19T00:06:58;34.40;;;5.70;;
4638;SDS011;2332;38.646;-9.154;2023-10-19T00:09:23;33.97;;;5.77;;
4638;SDS011;2332;38.646;-9.154;2023-10-19T00:11:50;29.70;;;5.70;;
4638;SDS011;2332;38.646;-9.154;2023-10-19T00:14:17;37.70;;;6.27;;
4638;SDS011;2332;38.646;-9.154;2023-10-19T00:16:45;28.63;;;5.40;;
4638;SDS011;2332;38.646;-9.154;2023-10-19T00:19:21;32.10;;;6.00;;
4638;SDS011;2332;38.646;-9.154;2023-10-19T00:21:47;37.80;;;5.90;;
4638;SDS011;2332;38.646;-9.154;2023-10-19T00:24:19;29.00;;;5.27;;
4638;SDS011;2332;38.646;-9.154;2023-10-19T00:26:47;26.23;;;5.03;;
4638;SDS011;2332;38.646;-9.154;2023-10-19T00:29:13;24.73;;;5.50;;
4638;SDS011;2332;38.646;-9.154;2023-10-19T00:31:59;31.27;;;5.17;;
4638;SDS011;2332;38.646;-9.154;2023-10-19T00:34:26;37.00;;;5.70;;
4638;SDS011;2332;38.646;-9.154;2023-10-19T00:36:53;29.70;;;5.43;;
4638;SDS011;2332;38.646;-9.154;2023-10-19T00:39:21;34.63;;;5.70;;
4638;SDS011;2332;38.646;-9.154;2023-10-19T00:41:46;28.03;;;5.37;;
4638;SDS011;2332;38.646;-9.154;2023-10-19T00:44:12;47.00;;;5.57;;
4638;SDS011;2332;38.646;-9.154;2023-10-19T00:46:47;35.20;;;6.07;;
4638;SDS011;2332;38.646;-9.154;2023-10-19T00:49:20;26.90;;;5.67;;
4638;SDS011;2332;38.646;-9.154;2023-10-19T00:51:49;50.97;;;6.27;;
4638;SDS011;2332;38.646;-9.154;2023-10-19T00:54:25;39.73;;;5.57;;
4638;SDS011;2332;38.646;-9.154;2023-10-19T00:57:01;25.23;;;4.70;;
4638;SDS011;2332;38.646;-9.154;2023-10-19T00:59:37;24.20;;;5.47;;
4638;SDS011;2332;38.646;-9.154;2023-10-19T01:02:15;25.20;;;4.73;;
4638;SDS011;2332;38.646;-9.154;2023-10-19T01:04:50;38.40;;;5.10;;
4638;SDS011;2332;38.646;-9.154;2023-10-19T01:07:21;37.77;;;5.33;;
4638;SDS011;2332;38.646;-9.154;2023-10-19T01:09:48;31.40;;;5.33;;
4638;SDS011;2332;38.646;-9.154;2023-10-19T01:12:13;39.30;;;5.43;;
4638;SDS011;2332;38.646;-9.154;2023-10-19T01:17:37;34.00;;;5.57;;
4638;SDS011;2332;38.646;-9.154;2023-10-19T01:20:05;29.13;;;5.47;;
4638;SDS011;2332;38.646;-9.154;2023-10-19T01:22:52;32.80;;;4.50;;
4638;SDS011;2332;38.646;-9.154;2023-10-19T01:25:19;29.93;;;4.30;;
4638;SDS011;2332;38.646;-9.154;2023-10-19T01:27:49;26.67;;;5.10;;
4638;SDS011;2332;38.646;-9.154;2023-10-19T01:30:19;27.30;;;4.60;;
4638;SDS011;2332;38.646;-9.154;2023-10-19T01:32:44;34.30;;;5.73;;
4638;SDS011;2332;38.646;-9.154;2023-10-19T01:35:10;29.77;;;5.80;;
4638;SDS011;2332;38.646;-9.154;2023-10-19T01:37:36;30.83;;;5.00;;
4638;SDS011;2332;38.646;-9.154;2023-10-19T01:40:03;24.50;;;4.47;;
4638;SDS011;2332;38.646;-9.154;2023-10-19T01:42:29;35.63;;;5.30;;
4638;SDS011;2332;38.646;-9.154;2023-10-19T01:44:55;33.80;;;5.00;;
4638;SDS011;2332;38.646;-9.154;2023-10-19T01:47:21;25.40;;;4.63;;
4638;SDS011;2332;38.646;-9.154;2023-10-19T01:49:47;25.63;;;4.60;;
4638;SDS011;2332;38.646;-9.154;2023-10-19T01:52:17;30.83;;;4.40;;
4638;SDS011;2332;38.646;-9.154;2023-10-19T01:54:42;24.43;;;4.20;;
4638;SDS011;2332;38.646;-9.154;2023-10-19T01:57:08;23.47;;;4.10;;
4638;SDS011;2332;38.646;-9.154;2023-10-19T01:59:34;22.77;;;3.63;;
4638;SDS011;2332;38.646;-9.154;2023-10-19T02:01:59;21.63;;;3.80;;
4638;SDS011;2332;38.646;-9.154;2023-10-19T02:04:25;23.50;;;3.90;;
4638;SDS011;2332;38.646;-9.154;2023-10-19T02:06:51;19.23;;;3.93;;
4638;SDS011;2332;38.646;-9.154;2023-10-19T02:09:19;20.53;;;3.87;;
4638;SDS011;2332;38.646;-9.154;2023-10-19T02:11:52;17.80;;;3.70;;
4638;SDS011;2332;38.646;-9.154;2023-10-19T02:14:24;10.50;;;3.23;;
4638;SDS011;2332;38.646;-9.154;2023-10-19T02:16:57;20.03;;;4.03;;
4638;SDS011;2332;38.646;-9.154;2023-10-19T02:19:24;17.70;;;3.73;;
4638;SDS011;2332;38.646;-9.154;2023-10-19T02:21:51;17.50;;;3.30;;
4638;SDS011;2332;38.646;-9.154;2023-10-19T02:24:17;18.00;;;3.60;;
4638;SDS011;2332;38.646;-9.154;2023-10-19T02:26:43;14.50;;;2.83;;
4638;SDS011;2332;38.646;-9.154;2023-10-19T02:29:09;7.23;;;2.33;;
4638;SDS011;2332;38.646;-9.154;2023-10-19T02:31:38;11.60;;;2.67;;
4638;SDS011;2332;38.646;-9.154;2023-10-19T02:34:05;10.80;;;2.80;;
4638;SDS011;2332;38.646;-9.154;2023-10-19T02:36:32;11.93;;;2.90;;
4638;SDS011;2332;38.646;-9.154;2023-10-19T02:38:59;11.50;;;2.10;;
4638;SDS011;2332;38.646;-9.154;2023-10-19T02:41:25;4.80;;;1.80;;
4638;SDS011;2332;38.646;-9.154;2023-10-19T02:43:52;9.27;;;1.90;;
4638;SDS011;2332;38.646;-9.154;2023-10-19T02:46:29;4.80;;;1.77;;
4638;SDS011;2332;38.646;-9.154;2023-10-19T02:48:59;4.80;;;1.60;;
4638;SDS011;2332;38.646;-9.154;2023-10-19T02:51:25;7.70;;;2.07;;
4638;SDS011;2332;38.646;-9.154;2023-10-19T02:53:51;9.70;;;1.80;;
4638;SDS011;2332;38.646;-9.154;2023-10-19T02:56:16;5.03;;;1.43;;
4638;SDS011;2332;38.646;-9.154;2023-10-19T02:58:44;13.70;;;2.20;;
4638;SDS011;2332;38.646;-9.154;2023-10-19T03:01:17;5.47;;;1.70;;
4638;SDS011;2332;38.646;-9.154;2023-10-19T03:03:50;6.03;;;1.70;;
4638;SDS011;2332;38.646;-9.154;2023-10-19T03:06:19;12.60;;;2.70;;
4638;SDS011;2332;38.646;-9.154;2023-10-19T03:08:46;7.10;;;2.17;;
4638;SDS011;2332;38.646;-9.154;2023-10-19T03:11:11;11.07;;;2.40;;
4638;SDS011;2332;38.646;-9.154;2023-10-19T03:13:38;15.57;;;2.10;;
4638;SDS011;2332;38.646;-9.154;2023-10-19T03:16:04;11.63;;;2.33;;
4638;SDS011;2332;38.646;-9.154;2023-10-19T03:18:33;12.40;;;2.33;;
4638;SDS011;2332;38.646;-9.154;2023-10-19T03:20:59;13.90;;;3.03;;
4638;SDS011;2332;38.646;-9.154;2023-10-19T03:23:24;21.63;;;3.90;;
4638;SDS011;2332;38.646;-9.154;2023-10-19T03:25:53;14.70;;;2.63;;
4638;SDS011;2332;38.646;-9.154;2023-10-19T03:28:37;16.90;;;3.07;;
4638;SDS011;2332;38.646;-9.154;2023-10-19T03:31:03;12.70;;;3.47;;
4638;SDS011;2332;38.646;-9.154;2023-10-19T03:33:29;26.63;;;4.13;;
4638;SDS011;2332;38.646;-9.154;2023-10-19T03:35:55;17.03;;;3.03;;
4638;SDS011;2332;38.646;-9.154;2023-10-19T03:38:21;18.07;;;3.83;;
4638;SDS011;2332;38.646;-9.154;2023-10-19T03:40:48;26.23;;;4.70;;
4638;SDS011;2332;38.646;-9.154;2023-10-19T03:43:24;21.60;;;4.40;;
4638;SDS011;2332;38.646;-9.154;2023-10-19T03:45:52;30.40;;;5.87;;
4638;SDS011;2332;38.646;-9.154;2023-10-19T03:48:18;31.03;;;5.50;;
4638;SDS011;2332;38.646;-9.154;2023-10-19T03:50:49;34.23;;;6.00;;
4638;SDS011;2332;38.646;-9.154;2023-10-19T03:53:16;41.07;;;6.07;;
4638;SDS011;2332;38.646;-9.154;2023-10-19T03:55:42;40.50;;;7.33;;
4638;SDS011;2332;38.646;-9.154;2023-10-19T03:58:09;36.97;;;7.07;;
4638;SDS011;2332;38.646;-9.154;2023-10-19T04:00:34;43.13;;;6.93;;
4638;SDS011;2332;38.646;-9.154;2023-10-19T04:02:59;43.33;;;6.90;;
4638;SDS011;2332;38.646;-9.154;2023-10-19T04:05:25;47.87;;;7.63;;
4638;SDS011;2332;38.646;-9.154;2023-10-19T04:07:53;40.43;;;6.87;;
4638;SDS011;2332;38.646;-9.154;2023-10-19T04:10:23;43.97;;;6.97;;
4638;SDS011;2332;38.646;-9.154;2023-10-19T04:13:00;34.70;;;6.27;;
4638;SDS011;2332;38.646;-9.154;2023-10-19T04:15:26;32.43;;;5.73;;
4638;SDS011;2332;38.646;-9.154;2023-10-19T04:17:52;31.37;;;7.73;;
4638;SDS011;2332;38.646;-9.154;2023-10-19T04:20:23;37.60;;;5.63;;
4638;SDS011;2332;38.646;-9.154;2023-10-19T04:22:55;34.97;;;6.43;;
4638;SDS011;2332;38.646;-9.154;2023-10-19T04:25:21;30.03;;;5.93;;
4638;SDS011;2332;38.646;-9.154;2023-10-19T04:27:55;28.20;;;6.33;;
4638;SDS011;2332;38.646;-9.154;2023-10-19T04:30:22;32.20;;;6.43;;
4638;SDS011;2332;38.646;-9.154;2023-10-19T04:32:47;36.93;;;6.07;;
4638;SDS011;2332;38.646;-9.154;2023-10-19T04:35:14;34.67;;;6.27;;
4638;SDS011;2332;38.646;-9.154;2023-10-19T04:37:40;41.77;;;6.60;;
4638;SDS011;2332;38.646;-9.154;2023-10-19T04:40:10;25.60;;;4.70;;
4638;SDS011;2332;38.646;-9.154;2023-10-19T04:42:37;42.20;;;6.20;;
4638;SDS011;2332;38.646;-9.154;2023-10-19T04:45:03;30.87;;;5.13;;
4638;SDS011;2332;38.646;-9.154;2023-10-19T04:47:28;36.37;;;5.50;;
4638;SDS011;2332;38.646;-9.154;2023-10-19T04:49:53;33.43;;;5.57;;
4638;SDS011;2332;38.646;-9.154;2023-10-19T04:52:19;36.30;;;5.67;;
4638;SDS011;2332;38.646;-9.154;2023-10-19T04:54:44;33.70;;;5.20;;
4638;SDS011;2332;38.646;-9.154;2023-10-19T04:57:10;38.50;;;5.17;;
4638;SDS011;2332;38.646;-9.154;2023-10-19T04:59:36;42.13;;;5.80;;
4638;SDS011;2332;38.646;-9.154;2023-10-19T05:02:01;29.23;;;5.40;;
4638;SDS011;2332;38.646;-9.154;2023-10-19T05:04:29;14.77;;;4.00;;
4638;SDS011;2332;38.646;-9.154;2023-10-19T05:06:55;17.17;;;4.40;;
4638;SDS011;2332;38.646;-9.154;2023-10-19T05:09:20;23.60;;;3.57;;
4638;SDS011;2332;38.646;-9.154;2023-10-19T05:11:46;24.70;;;4.73;;
4638;SDS011;2332;38.646;-9.154;2023-10-19T05:14:12;14.80;;;3.30;;
4638;SDS011;2332;38.646;-9.154;2023-10-19T05:16:39;15.17;;;3.37;;
4638;SDS011;2332;38.646;-9.154;2023-10-19T05:19:04;11.57;;;2.83;;
4638;SDS011;2332;38.646;-9.154;2023-10-19T05:21:30;9.77;;;2.60;;
4638;SDS011;2332;38.646;-9.154;2023-10-19T05:23:55;7.67;;;2.13;;
4638;SDS011;2332;38.646;-9.154;2023-10-19T05:26:21;6.30;;;2.40;;
4638;SDS011;2332;38.646;-9.154;2023-10-19T05:28:46;11.63;;;2.33;;
4638;SDS011;2332;38.646;-9.154;2023-10-19T05:31:13;9.60;;;2.40;;
4638;SDS011;2332;38.646;-9.154;2023-10-19T05:33:38;15.60;;;2.90;;
4638;SDS011;2332;38.646;-9.154;2023-10-19T05:36:04;13.53;;;2.80;;
4638;SDS011;2332;38.646;-9.154;2023-10-19T05:38:30;18.33;;;3.83;;
4638;SDS011;2332;38.646;-9.154;2023-10-19T05:40:57;18.73;;;3.30;;
4638;SDS011;2332;38.646;-9.154;2023-10-19T05:43:24;14.30;;;2.70;;
4638;SDS011;2332;38.646;-9.154;2023-10-19T05:45:49;18.13;;;3.57;;
4638;SDS011;2332;38.646;-9.154;2023-10-19T05:48:15;27.17;;;4.67;;
4638;SDS011;2332;38.646;-9.154;2023-10-19T05:50:40;21.40;;;4.10;;
4638;SDS011;2332;38.646;-9.154;2023-10-19T05:53:07;27.27;;;2.97;;
4638;SDS011;2332;38.646;-9.154;2023-10-19T05:55:32;18.53;;;2.90;;
4638;SDS011;2332;38.646;-9.154;2023-10-19T05:57:59;21.77;;;3.60;;
4638;SDS011;2332;38.646;-9.154;2023-10-19T06:00:24;14.07;;;3.27;;
4638;SDS011;2332;38.646;-9.154;2023-10-19T06:02:53;23.90;;;3.77;;
4638;SDS011;2332;38.646;-9.154;2023-10-19T06:05:19;28.40;;;4.13;;
4638;SDS011;2332;38.646;-9.154;2023-10-19T06:07:45;18.67;;;3.63;;
4638;SDS011;2332;38.646;-9.154;2023-10-19T06:10:11;31.57;;;5.13;;
4638;SDS011;2332;38.646;-9.154;2023-10-19T06:12:41;42.07;;;5.63;;
4638;SDS011;2332;38.646;-9.154;2023-10-19T06:15:06;36.83;;;5.40;;
4638;SDS011;2332;38.646;-9.154;2023-10-19T06:17:33;31.73;;;5.20;;
4638;SDS011;2332;38.646;-9.154;2023-10-19T06:19:58;49.67;;;5.90;;
4638;SDS011;2332;38.646;-9.154;2023-10-19T06:22:23;55.83;;;6.43;;
4638;SDS011;2332;38.646;-9.154;2023-10-19T06:24:49;34.93;;;6.37;;
4638;SDS011;2332;38.646;-9.154;2023-10-19T06:27:14;33.77;;;6.50;;
4638;SDS011;2332;38.646;-9.154;2023-10-19T06:29:40;47.10;;;7.30;;
4638;SDS011;2332;38.646;-9.154;2023-10-19T06:32:05;37.60;;;6.80;;
4638;SDS011;2332;38.646;-9.154;2023-10-19T06:34:30;40.00;;;6.70;;
4638;SDS011;2332;38.646;-9.154;2023-10-19T06:36:57;46.67;;;7.53;;
4638;SDS011;2332;38.646;-9.154;2023-10-19T06:39:24;37.33;;;6.73;;
4638;SDS011;2332;38.646;-9.154;2023-10-19T06:41:49;55.37;;;8.57;;
4638;SDS011;2332;38.646;-9.154;2023-10-19T06:44:15;42.53;;;7.53;;
4638;SDS011;2332;38.646;-9.154;2023-10-19T06:46:42;49.43;;;7.00;;
4638;SDS011;2332;38.646;-9.154;2023-10-19T06:49:08;55.13;;;9.30;;
4638;SDS011;2332;38.646;-9.154;2023-10-19T06:51:33;64.50;;;9.63;;
4638;SDS011;2332;38.646;-9.154;2023-10-19T06:53:59;57.67;;;8.90;;
4638;SDS011;2332;38.646;-9.154;2023-10-19T06:56:24;55.57;;;8.10;;
4638;SDS011;2332;38.646;-9.154;2023-10-19T06:58:50;55.83;;;8.33;;
4638;SDS011;2332;38.646;-9.154;2023-10-19T07:01:15;50.60;;;7.73;;
4638;SDS011;2332;38.646;-9.154;2023-10-19T07:03:48;57.23;;;8.07;;
4638;SDS011;2332;38.646;-9.154;2023-10-19T07:06:13;49.47;;;8.07;;
4638;SDS011;2332;38.646;-9.154;2023-10-19T07:08:41;58.50;;;8.17;;
4638;SDS011;2332;38.646;-9.154;2023-10-19T07:11:07;50.73;;;8.20;;
4638;SDS011;2332;38.646;-9.154;2023-10-19T07:13:32;39.33;;;7.10;;
4638;SDS011;2332;38.646;-9.154;2023-10-19T07:15:58;55.27;;;7.90;;
4638;SDS011;2332;38.646;-9.154;2023-10-19T07:18:24;52.87;;;6.87;;
4638;SDS011;2332;38.646;-9.154;2023-10-19T07:20:49;43.17;;;7.00;;
4638;SDS011;2332;38.646;-9.154;2023-10-19T07:23:14;49.57;;;7.27;;
4638;SDS011;2332;38.646;-9.154;2023-10-19T07:25:52;47.00;;;8.10;;
4638;SDS011;2332;38.646;-9.154;2023-10-19T07:28:19;46.10;;;6.23;;
4638;SDS011;2332;38.646;-9.154;2023-10-19T07:30:45;42.47;;;7.43;;
4638;SDS011;2332;38.646;-9.154;2023-10-19T07:33:11;37.50;;;6.40;;
4638;SDS011;2332;38.646;-9.154;2023-10-19T07:35:43;41.70;;;7.13;;
4638;SDS011;2332;38.646;-9.154;2023-10-19T07:38:12;39.63;;;7.57;;
4638;SDS011;2332;38.646;-9.154;2023-10-19T07:40:38;42.60;;;6.40;;
4638;SDS011;2332;38.646;-9.154;2023-10-19T07:43:04;52.47;;;8.47;;
4638;SDS011;2332;38.646;-9.154;2023-10-19T07:45:29;46.20;;;7.17;;
4638;SDS011;2332;38.646;-9.154;2023-10-19T07:47:56;47.13;;;7.80;;
4638;SDS011;2332;38.646;-9.154;2023-10-19T07:50:22;47.90;;;8.07;;
4638;SDS011;2332;38.646;-9.154;2023-10-19T07:52:49;51.63;;;8.10;;
4638;SDS011;2332;38.646;-9.154;2023-10-19T07:55:15;49.27;;;8.60;;
4638;SDS011;2332;38.646;-9.154;2023-10-19T07:57:41;61.70;;;8.70;;
4638;SDS011;2332;38.646;-9.154;2023-10-19T08:00:07;44.20;;;8.03;;
4638;SDS011;2332;38.646;-9.154;2023-10-19T08:02:33;43.43;;;8.13;;
4638;SDS011;2332;38.646;-9.154;2023-10-19T08:05:00;45.90;;;8.40;;
4638;SDS011;2332;38.646;-9.154;2023-10-19T08:07:27;47.13;;;7.43;;
4638;SDS011;2332;38.646;-9.154;2023-10-19T08:09:53;46.20;;;7.57;;
4638;SDS011;2332;38.646;-9.154;2023-10-19T08:12:20;61.77;;;8.30;;
4638;SDS011;2332;38.646;-9.154;2023-10-19T08:14:47;56.23;;;8.53;;
4638;SDS011;2332;38.646;-9.154;2023-10-19T08:17:12;56.87;;;8.33;;
4638;SDS011;2332;38.646;-9.154;2023-10-19T08:19:38;61.93;;;9.60;;
4638;SDS011;2332;38.646;-9.154;2023-10-19T08:22:03;48.77;;;8.50;;
4638;SDS011;2332;38.646;-9.154;2023-10-19T08:24:30;60.13;;;8.93;;
4638;SDS011;2332;38.646;-9.154;2023-10-19T08:26:55;57.13;;;8.73;;
4638;SDS011;2332;38.646;-9.154;2023-10-19T08:29:21;52.63;;;9.90;;
4638;SDS011;2332;38.646;-9.154;2023-10-19T08:31:47;51.70;;;10.27;;
4638;SDS011;2332;38.646;-9.154;2023-10-19T08:34:12;51.03;;;7.83;;
4638;SDS011;2332;38.646;-9.154;2023-10-19T08:36:38;45.93;;;8.20;;
4638;SDS011;2332;38.646;-9.154;2023-10-19T08:39:07;42.93;;;8.60;;
4638;SDS011;2332;38.646;-9.154;2023-10-19T08:41:34;55.10;;;8.60;;
4638;SDS011;2332;38.646;-9.154;2023-10-19T08:44:00;47.80;;;8.13;;
4638;SDS011;2332;38.646;-9.154;2023-10-19T08:46:26;54.13;;;8.77;;
4638;SDS011;2332;38.646;-9.154;2023-10-19T08:48:54;52.23;;;9.60;;
4638;SDS011;2332;38.646;-9.154;2023-10-19T08:51:22;63.87;;;10.13;;
4638;SDS011;2332;38.646;-9.154;2023-10-19T08:53:50;51.07;;;8.53;;
4638;SDS011;2332;38.646;-9.154;2023-10-19T08:56:17;58.30;;;9.00;;
4638;SDS011;2332;38.646;-9.154;2023-10-19T08:58:43;45.07;;;8.43;;
4638;SDS011;2332;38.646;-9.154;2023-10-19T09:01:08;48.10;;;8.53;;
4638;SDS011;2332;38.646;-9.154;2023-10-19T09:03:35;60.70;;;9.67;;
4638;SDS011;2332;38.646;-9.154;2023-10-19T09:06:01;53.43;;;9.40;;
4638;SDS011;2332;38.646;-9.154;2023-10-19T09:08:26;41.57;;;7.70;;
4638;SDS011;2332;38.646;-9.154;2023-10-19T09:11:06;53.83;;;7.70;;
4638;SDS011;2332;38.646;-9.154;2023-10-19T09:13:54;48.70;;;9.00;;
4638;SDS011;2332;38.646;-9.154;2023-10-19T09:16:19;58.10;;;8.10;;
4638;SDS011;2332;38.646;-9.154;2023-10-19T09:18:48;52.50;;;8.47;;
4638;SDS011;2332;38.646;-9.154;2023-10-19T09:21:17;47.83;;;7.90;;
4638;SDS011;2332;38.646;-9.154;2023-10-19T09:23:51;57.37;;;9.23;;
4638;SDS011;2332;38.646;-9.154;2023-10-19T09:26:17;53.07;;;9.00;;
4638;SDS011;2332;38.646;-9.154;2023-10-19T09:28:45;52.20;;;9.70;;
4638;SDS011;2332;38.646;-9.154;2023-10-19T09:31:12;54.90;;;9.40;;
4638;SDS011;2332;38.646;-9.154;2023-10-19T09:33:40;55.40;;;9.70;;
4638;SDS011;2332;38.646;-9.154;2023-10-19T09:36:06;42.43;;;8.23;;
4638;SDS011;2332;38.646;-9.154;2023-10-19T09:38:47;54.97;;;9.37;;
4638;SDS011;2332;38.646;-9.154;2023-10-19T09:41:22;50.00;;;9.20;;
4638;SDS011;2332;38.646;-9.154;2023-10-19T09:43:48;50.00;;;8.83;;
4638;SDS011;2332;38.646;-9.154;2023-10-19T09:46:21;52.27;;;8.13;;
4638;SDS011;2332;38.646;-9.154;2023-10-19T09:48:47;48.27;;;8.00;;
4638;SDS011;2332;38.646;-9.154;2023-10-19T09:51:16;50.07;;;9.00;;
4638;SDS011;2332;38.646;-9.154;2023-10-19T09:53:47;58.27;;;10.00;;
4638;SDS011;2332;38.646;-9.154;2023-10-19T09:56:17;45.60;;;8.50;;
4638;SDS011;2332;38.646;-9.154;2023-10-19T09:59:02;57.47;;;10.60;;
4638;SDS011;2332;38.646;-9.154;2023-10-19T10:01:54;43.67;;;8.93;;
4638;SDS011;2332;38.646;-9.154;2023-10-19T10:04:30;47.77;;;8.77;;
4638;SDS011;2332;38.646;-9.154;2023-10-19T10:09:24;49.57;;;9.63;;
4638;SDS011;2332;38.646;-9.154;2023-10-19T10:11:53;63.10;;;10.10;;
4638;SDS011;2332;38.646;-9.154;2023-10-19T10:14:22;45.50;;;8.67;;
4638;SDS011;2332;38.646;-9.154;2023-10-19T10:16:59;55.83;;;8.67;;
4638;SDS011;2332;38.646;-9.154;2023-10-19T10:19:27;42.40;;;7.50;;
4638;SDS011;2332;38.646;-9.154;2023-10-19T10:22:25;57.67;;;9.37;;
4638;SDS011;2332;38.646;-9.154;2023-10-19T10:24:46;40.40;;;8.70;;
4638;SDS011;2332;38.646;-9.154;2023-10-19T10:27:11;55.93;;;8.20;;
4638;SDS011;2332;38.646;-9.154;2023-10-19T10:29:55;49.57;;;9.50;;
4638;SDS011;2332;38.646;-9.154;2023-10-19T10:38:05;48.30;;;9.13;;
4638;SDS011;2332;38.646;-9.154;2023-10-19T10:40:31;56.80;;;8.73;;
4638;SDS011;2332;38.646;-9.154;2023-10-19T10:43:06;52.47;;;9.40;;
4638;SDS011;2332;38.646;-9.154;2023-10-19T10:45:31;53.60;;;9.13;;
4638;SDS011;2332;38.646;-9.154;2023-10-19T10:47:56;49.30;;;8.93;;
4638;SDS011;2332;38.646;-9.154;2023-10-19T10:50:22;41.47;;;8.57;;
4638;SDS011;2332;38.646;-9.154;2023-10-19T10:52:48;64.63;;;9.53;;
4638;SDS011;2332;38.646;-9.154;2023-10-19T10:55:14;71.70;;;10.27;;
4638;SDS011;2332;38.646;-9.154;2023-10-19T10:57:40;74.20;;;11.50;;
4638;SDS011;2332;38.646;-9.154;2023-10-19T11:00:09;75.20;;;11.00;;
4638;SDS011;2332;38.646;-9.154;2023-10-19T11:02:38;61.17;;;11.20;;
4638;SDS011;2332;38.646;-9.154;2023-10-19T11:05:08;71.27;;;11.70;;
4638;SDS011;2332;38.646;-9.154;2023-10-19T11:07:37;75.83;;;12.20;;
4638;SDS011;2332;38.646;-9.154;2023-10-19T11:10:02;93.50;;;13.37;;
4638;SDS011;2332;38.646;-9.154;2023-10-19T11:12:28;68.60;;;12.73;;
4638;SDS011;2332;38.646;-9.154;2023-10-19T11:14:57;66.93;;;11.50;;
4638;SDS011;2332;38.646;-9.154;2023-10-19T11:17:24;59.77;;;11.13;;
4638;SDS011;2332;38.646;-9.154;2023-10-19T11:19:54;63.80;;;10.70;;
4638;SDS011;2332;38.646;-9.154;2023-10-19T11:22:21;68.93;;;11.63;;
4638;SDS011;2332;38.646;-9.154;2023-10-19T11:24:46;67.27;;;11.60;;
4638;SDS011;2332;38.646;-9.154;2023-10-19T11:27:12;65.10;;;12.00;;
4638;SDS011;2332;38.646;-9.154;2023-10-19T11:29:37;33.80;;;6.20;;
4638;SDS011;2332;38.646;-9.154;2023-10-19T11:32:03;33.77;;;6.40;;
4638;SDS011;2332;38.646;-9.154;2023-10-19T11:34:29;42.23;;;7.43;;
4638;SDS011;2332;38.646;-9.154;2023-10-19T11:36:58;31.70;;;6.53;;
4638;SDS011;2332;38.646;-9.154;2023-10-19T11:39:25;24.70;;;4.67;;
4638;SDS011;2332;38.646;-9.154;2023-10-19T11:41:50;21.50;;;4.63;;
4638;SDS011;2332;38.646;-9.154;2023-10-19T11:44:16;37.73;;;7.67;;
4638;SDS011;2332;38.646;-9.154;2023-10-19T11:46:41;35.93;;;6.50;;
4638;SDS011;2332;38.646;-9.154;2023-10-19T11:49:06;37.87;;;7.60;;
4638;SDS011;2332;38.646;-9.154;2023-10-19T11:51:33;39.67;;;9.53;;
4638;SDS011;2332;38.646;-9.154;2023-10-19T11:53:59;50.73;;;8.33;;
4638;SDS011;2332;38.646;-9.154;2023-10-19T11:56:24;48.33;;;7.83;;
4638;SDS011;2332;38.646;-9.154;2023-10-19T11:58:50;51.63;;;9.17;;
4638;SDS011;2332;38.646;-9.154;2023-10-19T12:01:16;40.67;;;6.60;;
4638;SDS011;2332;38.646;-9.154;2023-10-19T12:03:44;31.57;;;5.87;;
4638;SDS011;2332;38.646;-9.154;2023-10-19T12:06:13;36.53;;;7.20;;
4638;SDS011;2332;38.646;-9.154;2023-10-19T12:08:44;37.60;;;6.80;;
4638;SDS011;2332;38.646;-9.154;2023-10-19T12:11:09;34.27;;;6.97;;
4638;SDS011;2332;38.646;-9.154;2023-10-19T12:13:42;25.90;;;4.63;;
4638;SDS011;2332;38.646;-9.154;2023-10-19T12:16:09;24.13;;;5.20;;
4638;SDS011;2332;38.646;-9.154;2023-10-19T12:18:36;24.87;;;4.87;;
4638;SDS011;2332;38.646;-9.154;2023-10-19T12:21:03;33.00;;;4.70;;
4638;SDS011;2332;38.646;-9.154;2023-10-19T12:23:33;34.00;;;6.30;;
4638;SDS011;2332;38.646;-9.154;2023-10-19T12:25:58;35.80;;;7.07;;
4638;SDS011;2332;38.646;-9.154;2023-10-19T12:28:27;42.40;;;8.50;;
4638;SDS011;2332;38.646;-9.154;2023-10-19T12:30:53;37.80;;;8.10;;
4638;SDS011;2332;38.646;-9.154;2023-10-19T12:33:18;30.20;;;6.77;;
4638;SDS011;2332;38.646;-9.154;2023-10-19T12:35:44;41.53;;;8.93;;
4638;SDS011;2332;38.646;-9.154;2023-10-19T12:38:30;54.27;;;8.70;;
4638;SDS011;2332;38.646;-9.154;2023-10-19T12:40:55;42.73;;;8.00;;
4638;SDS011;2332;38.646;-9.154;2023-10-19T12:43:21;63.37;;;9.47;;
4638;SDS011;2332;38.646;-9.154;2023-10-19T12:45:50;52.90;;;8.23;;
4638;SDS011;2332;38.646;-9.154;2023-10-19T12:48:16;67.53;;;12.43;;
4638;SDS011;2332;38.646;-9.154;2023-10-19T12:50:41;56.70;;;9.43;;
4638;SDS011;2332;38.646;-9.154;2023-10-19T12:53:07;77.73;;;10.37;;
4638;SDS011;2332;38.646;-9.154;2023-10-19T12:55:32;69.57;;;12.60;;
4638;SDS011;2332;38.646;-9.154;2023-10-19T12:57:58;67.37;;;11.13;;
4638;SDS011;2332;38.646;-9.154;2023-10-19T13:00:31;54.83;;;10.07;;
4638;SDS011;2332;38.646;-9.154;2023-10-19T13:03:04;52.87;;;9.20;;
4638;SDS011;2332;38.646;-9.154;2023-10-19T13:05:33;61.80;;;12.10;;
4638;SDS011;2332;38.646;-9.154;2023-10-19T13:07:59;92.53;;;14.53;;
4638;SDS011;2332;38.646;-9.154;2023-10-19T13:10:28;97.40;;;13.53;;
4638;SDS011;2332;38.646;-9.154;2023-10-19T13:12:57;83.17;;;11.23;;
4638;SDS011;2332;38.646;-9.154;2023-10-19T13:15:23;68.20;;;11.93;;
4638;SDS011;2332;38.646;-9.154;2023-10-19T13:17:51;81.77;;;13.23;;
4638;SDS011;2332;38.646;-9.154;2023-10-19T13:20:17;69.77;;;10.70;;
4638;SDS011;2332;38.646;-9.154;2023-10-19T13:22:45;67.43;;;9.97;;
4638;SDS011;2332;38.646;-9.154;2023-10-19T13:25:12;78.37;;;9.63;;
4638;SDS011;2332;38.646;-9.154;2023-10-19T13:27:46;63.70;;;9.90;;
4638;SDS011;2332;38.646;-9.154;2023-10-19T13:30:12;56.17;;;9.23;;
4638;SDS011;2332;38.646;-9.154;2023-10-19T13:32:37;69.33;;;9.30;;
4638;SDS011;2332;38.646;-9.154;2023-10-19T13:35:03;61.07;;;9.87;;
4638;SDS011;2332;38.646;-9.154;2023-10-19T13:37:29;66.87;;;10.67;;
4638;SDS011;2332;38.646;-9.154;2023-10-19T13:39:54;72.10;;;10.97;;
4638;SDS011;2332;38.646;-9.154;2023-10-19T13:42:20;68.93;;;11.73;;
4638;SDS011;2332;38.646;-9.154;2023-10-19T13:44:47;56.47;;;9.60;;
4638;SDS011;2332;38.646;-9.154;2023-10-19T13:47:12;47.03;;;8.10;;
4638;SDS011;2332;38.646;-9.154;2023-10-19T13:49:37;55.43;;;9.07;;
4638;SDS011;2332;38.646;-9.154;2023-10-19T13:52:03;41.60;;;6.80;;
4638;SDS011;2332;38.646;-9.154;2023-10-19T13:54:29;39.90;;;7.20;;
4638;SDS011;2332;38.646;-9.154;2023-10-19T13:56:55;53.00;;;8.10;;
4638;SDS011;2332;38.646;-9.154;2023-10-19T13:59:20;43.50;;;7.10;;
4638;SDS011;2332;38.646;-9.154;2023-10-19T14:01:45;54.67;;;8.90;;
4638;SDS011;2332;38.646;-9.154;2023-10-19T14:04:11;44.80;;;7.13;;
4638;SDS011;2332;38.646;-9.154;2023-10-19T14:06:38;48.30;;;7.23;;
4638;SDS011;2332;38.646;-9.154;2023-10-19T14:09:03;42.73;;;7.17;;
4638;SDS011;2332;38.646;-9.154;2023-10-19T14:11:30;48.40;;;6.00;;
4638;SDS011;2332;38.646;-9.154;2023-10-19T14:13:55;44.37;;;5.83;;
4638;SDS011;2332;38.646;-9.154;2023-10-19T14:16:21;32.93;;;5.80;;
4638;SDS011;2332;38.646;-9.154;2023-10-19T14:18:48;17.93;;;3.37;;
4638;SDS011;2332;38.646;-9.154;2023-10-19T14:21:14;13.73;;;4.40;;
4638;SDS011;2332;38.646;-9.154;2023-10-19T14:23:40;16.20;;;2.90;;
4638;SDS011;2332;38.646;-9.154;2023-10-19T14:26:06;15.30;;;2.73;;
4638;SDS011;2332;38.646;-9.154;2023-10-19T14:28:31;9.53;;;2.07;;
4638;SDS011;2332;38.646;-9.154;2023-10-19T14:30:57;18.37;;;2.83;;
4638;SDS011;2332;38.646;-9.154;2023-10-19T14:33:22;10.00;;;3.10;;
4638;SDS011;2332;38.646;-9.154;2023-10-19T14:35:47;10.07;;;2.70;;
4638;SDS011;2332;38.646;-9.154;2023-10-19T14:38:13;11.77;;;2.40;;
4638;SDS011;2332;38.646;-9.154;2023-10-19T14:40:40;8.00;;;3.07;;
4638;SDS011;2332;38.646;-9.154;2023-10-19T14:43:13;17.17;;;2.90;;
4638;SDS011;2332;38.646;-9.154;2023-10-19T14:45:39;16.43;;;2.90;;
4638;SDS011;2332;38.646;-9.154;2023-10-19T14:48:05;11.17;;;2.20;;
4638;SDS011;2332;38.646;-9.154;2023-10-19T14:50:33;12.40;;;2.60;;
4638;SDS011;2332;38.646;-9.154;2023-10-19T14:52:59;16.27;;;3.30;;
4638;SDS011;2332;38.646;-9.154;2023-10-19T14:55:24;8.40;;;2.07;;
4638;SDS011;2332;38.646;-9.154;2023-10-19T14:57:50;13.70;;;3.70;;
4638;SDS011;2332;38.646;-9.154;2023-10-19T15:00:19;10.10;;;2.30;;
4638;SDS011;2332;38.646;-9.154;2023-10-19T15:02:59;14.00;;;2.67;;